BIGH weather

Gunnarsholt Airport
Gunnarsholt, Southern Region, Iceland

Public forecast

Using degrees Celsius for public forecast. Weather courtesy of forecast.io.

METAR (pilot weather report)

Report is more than 6 hours old.

Closest report is Vestmannaeyjar Airport, 25.8 nm (47.7 km) S. Retrieved 2019/04/25 17:00 UTC (11 hours ago):

BIVM 251700Z 10020G33KT 8000 HZ BKN035 09/07 Q0996

TAF (pilot weather forecast)

Closest forecast is Reykjavik Airport, 47.2 nm (87.4 km) WNW. Retrieved 2019/04/26 03:03 UTC (1 hour ago):

TAF BIRK 260101Z 2603/2703 13014KT 5000 RADZ BR SCT010 OVC020 TX12/2615Z TN07/2624Z TEMPO 2603/2605 9999 -RA SCT020 OVC050 BECMG 2605/2608 9999 -SHRA BKN020 TEMPO 2618/2700 7000 RADZ SCT012 OVC020